sensor_id;sensor_type;location;lat;lon;timestamp;pressure;altitude;pressure_sealevel;temperature;humidity
48652;BME280;34442;52.362;-1.302;2022-09-09T00:02:22;98948.34;;;14.32;100.00
48652;BME280;34442;52.362;-1.302;2022-09-09T00:04:59;98949.16;;;14.38;100.00
48652;BME280;34442;52.362;-1.302;2022-09-09T00:07:43;98949.16;;;14.38;100.00
48652;BME280;34442;52.362;-1.302;2022-09-09T00:16:15;98947.06;;;14.50;100.00
48652;BME280;34442;52.362;-1.302;2022-09-09T00:19:07;98948.16;;;14.54;100.00
48652;BME280;34442;52.362;-1.302;2022-09-09T00:21:45;98951.66;;;14.55;100.00
48652;BME280;34442;52.362;-1.302;2022-09-09T00:24:43;98943.56;;;14.55;100.00
48652;BME280;34442;52.362;-1.302;2022-09-09T00:30:18;98943.13;;;14.10;100.00
48652;BME280;34442;52.362;-1.302;2022-09-09T00:32:50;98946.63;;;14.06;100.00
48652;BME280;34442;52.362;-1.302;2022-09-09T00:38:18;98942.03;;;14.06;100.00
48652;BME280;34442;52.362;-1.302;2022-09-09T00:41:11;98945.31;;;14.08;100.00
48652;BME280;34442;52.362;-1.302;2022-09-09T00:43:41;98945.59;;;14.12;100.00
48652;BME280;34442;52.362;-1.302;2022-09-09T00:54:40;98951.81;;;14.12;100.00
48652;BME280;34442;52.362;-1.302;2022-09-09T00:57:23;98952.59;;;14.08;100.00
48652;BME280;34442;52.362;-1.302;2022-09-09T01:05:44;98959.34;;;14.05;100.00
48652;BME280;34442;52.362;-1.302;2022-09-09T01:11:04;98957.16;;;14.02;100.00
48652;BME280;34442;52.362;-1.302;2022-09-09T01:13:34;98957.44;;;14.01;100.00
48652;BME280;34442;52.362;-1.302;2022-09-09T01:16:04;98956.34;;;13.97;100.00
48652;BME280;34442;52.362;-1.302;2022-09-09T01:18:34;98954.72;;;13.96;100.00
48652;BME280;34442;52.362;-1.302;2022-09-09T01:26:30;98954.16;;;13.94;100.00
48652;BME280;34442;52.362;-1.302;2022-09-09T01:28:58;98965.47;;;13.90;100.00
48652;BME280;34442;52.362;-1.302;2022-09-09T01:31:33;98961.66;;;13.86;100.00
48652;BME280;34442;52.362;-1.302;2022-09-09T01:34:01;98963.56;;;13.86;100.00
48652;BME280;34442;52.362;-1.302;2022-09-09T01:36:57;98965.75;;;13.89;100.00
48652;BME280;34442;52.362;-1.302;2022-09-09T01:39:25;98967.94;;;13.92;100.00
48652;BME280;34442;52.362;-1.302;2022-09-09T01:41:52;98958.22;;;13.96;100.00
48652;BME280;34442;52.362;-1.302;2022-09-09T01:44:20;98958.75;;;13.98;100.00
48652;BME280;34442;52.362;-1.302;2022-09-09T01:46:46;98957.16;;;14.02;100.00
48652;BME280;34442;52.362;-1.302;2022-09-09T01:49:12;98964.44;;;14.02;100.00
48652;BME280;34442;52.362;-1.302;2022-09-09T01:51:40;98953.66;;;14.02;100.00
48652;BME280;34442;52.362;-1.302;2022-09-09T01:54:08;98956.09;;;14.03;100.00
48652;BME280;34442;52.362;-1.302;2022-09-09T02:03:05;98958.81;;;14.03;100.00
48652;BME280;34442;52.362;-1.302;2022-09-09T02:05:39;98959.63;;;14.04;100.00
48652;BME280;34442;52.362;-1.302;2022-09-09T02:11:13;98965.53;;;14.01;100.00
48652;BME280;34442;52.362;-1.302;2022-09-09T02:13:41;98965.53;;;13.96;100.00
48652;BME280;34442;52.362;-1.302;2022-09-09T02:16:30;98964.41;;;13.92;100.00
48652;BME280;34442;52.362;-1.302;2022-09-09T02:19:06;98968.19;;;13.90;100.00
48652;BME280;34442;52.362;-1.302;2022-09-09T02:21:34;98971.97;;;13.89;100.00
48652;BME280;34442;52.362;-1.302;2022-09-09T02:24:05;98966.56;;;13.89;100.00
48652;BME280;34442;52.362;-1.302;2022-09-09T02:26:38;98966.84;;;13.88;100.00
48652;BME280;34442;52.362;-1.302;2022-09-09T02:29:11;98961.66;;;13.86;100.00
48652;BME280;34442;52.362;-1.302;2022-09-09T02:31:39;98965.22;;;13.87;100.00
48652;BME280;34442;52.362;-1.302;2022-09-09T02:34:08;98968.16;;;13.85;100.00
48652;BME280;34442;52.362;-1.302;2022-09-09T02:36:36;98966.53;;;13.84;100.00
48652;BME280;34442;52.362;-1.302;2022-09-09T02:39:07;98971.44;;;13.87;100.00
48652;BME280;34442;52.362;-1.302;2022-09-09T02:41:36;98975.75;;;13.88;100.00
48652;BME280;34442;52.362;-1.302;2022-09-09T02:44:08;98973.59;;;13.90;100.00
48652;BME280;34442;52.362;-1.302;2022-09-09T02:49:25;98970.06;;;13.90;100.00
48652;BME280;34442;52.362;-1.302;2022-09-09T02:52:26;98975.22;;;13.92;100.00
48652;BME280;34442;52.362;-1.302;2022-09-09T02:54:59;98973.31;;;13.87;100.00
48652;BME280;34442;52.362;-1.302;2022-09-09T02:57:30;98975.16;;;13.81;100.00
48652;BME280;34442;52.362;-1.302;2022-09-09T02:59:59;98985.97;;;13.81;100.00
48652;BME280;34442;52.362;-1.302;2022-09-09T03:02:26;98981.91;;;13.79;100.00
48652;BME280;34442;52.362;-1.302;2022-09-09T03:04:52;98986.47;;;13.78;100.00
48652;BME280;34442;52.362;-1.302;2022-09-09T03:07:19;98994.84;;;13.77;100.00
48652;BME280;34442;52.362;-1.302;2022-09-09T03:09:45;98990.25;;;13.72;100.00
48652;BME280;34442;52.362;-1.302;2022-09-09T03:12:11;98983.22;;;13.66;100.00
48652;BME280;34442;52.362;-1.302;2022-09-09T03:14:38;98997.44;;;13.56;100.00
48652;BME280;34442;52.362;-1.302;2022-09-09T03:17:05;98996.94;;;13.59;100.00
48652;BME280;34442;52.362;-1.302;2022-09-09T03:19:31;98994.50;;;13.58;100.00
48652;BME280;34442;52.362;-1.302;2022-09-09T03:21:58;99003.09;;;13.55;100.00
48652;BME280;34442;52.362;-1.302;2022-09-09T03:24:24;98997.72;;;13.60;100.00
48652;BME280;34442;52.362;-1.302;2022-09-09T03:26:50;98996.66;;;13.61;100.00
48652;BME280;34442;52.362;-1.302;2022-09-09T03:29:16;98986.91;;;13.55;100.00
48652;BME280;34442;52.362;-1.302;2022-09-09T03:31:46;98991.25;;;13.61;100.00
48652;BME280;34442;52.362;-1.302;2022-09-09T03:34:12;98989.13;;;13.63;100.00
48652;BME280;34442;52.362;-1.302;2022-09-09T03:36:39;98996.66;;;13.61;100.00
48652;BME280;34442;52.362;-1.302;2022-09-09T03:39:06;98991.38;;;13.81;100.00
48652;BME280;34442;52.362;-1.302;2022-09-09T03:41:32;98997.44;;;14.04;100.00
48652;BME280;34442;52.362;-1.302;2022-09-09T03:43:59;98993.38;;;14.01;100.00
48652;BME280;34442;52.362;-1.302;2022-09-09T03:46:25;98992.59;;;14.11;100.00
48652;BME280;34442;52.362;-1.302;2022-09-09T03:48:52;99000.97;;;14.09;100.00
48652;BME280;34442;52.362;-1.302;2022-09-09T03:51:18;99013.66;;;14.09;100.00
48652;BME280;34442;52.362;-1.302;2022-09-09T03:53:44;99007.47;;;14.13;100.00
48652;BME280;34442;52.362;-1.302;2022-09-09T03:56:10;99004.47;;;14.10;100.00
48652;BME280;34442;52.362;-1.302;2022-09-09T03:58:37;99013.66;;;14.09;100.00
48652;BME280;34442;52.362;-1.302;2022-09-09T04:01:06;99016.66;;;14.07;100.00
48652;BME280;34442;52.362;-1.302;2022-09-09T04:03:34;99019.06;;;14.04;100.00
48652;BME280;34442;52.362;-1.302;2022-09-09T04:06:01;99021.22;;;14.07;100.00
48652;BME280;34442;52.362;-1.302;2022-09-09T04:08:29;99022.88;;;14.08;100.00
48652;BME280;34442;52.362;-1.302;2022-09-09T04:10:57;99029.38;;;14.12;100.00
48652;BME280;34442;52.362;-1.302;2022-09-09T04:13:24;99031.50;;;14.10;100.00
48652;BME280;34442;52.362;-1.302;2022-09-09T04:15:52;99030.13;;;14.02;100.00
48652;BME280;34442;52.362;-1.302;2022-09-09T04:18:19;99026.88;;;14.00;100.00
48652;BME280;34442;52.362;-1.302;2022-09-09T04:20:49;99020.66;;;14.00;100.00
48652;BME280;34442;52.362;-1.302;2022-09-09T04:23:16;99032.81;;;14.02;100.00
48652;BME280;34442;52.362;-1.302;2022-09-09T04:25:45;99027.97;;;14.04;100.00
48652;BME280;34442;52.362;-1.302;2022-09-09T04:28:13;99030.41;;;14.06;100.00
48652;BME280;34442;52.362;-1.302;2022-09-09T04:30:40;99040.13;;;14.07;100.00
48652;BME280;34442;52.362;-1.302;2022-09-09T04:33:06;99040.09;;;13.97;100.00
48652;BME280;34442;52.362;-1.302;2022-09-09T04:35:33;99031.41;;;13.89;100.00
48652;BME280;34442;52.362;-1.302;2022-09-09T04:37:59;99034.41;;;13.93;100.00
48652;BME280;34442;52.362;-1.302;2022-09-09T04:40:25;99038.38;;;13.80;100.00
48652;BME280;34442;52.362;-1.302;2022-09-09T04:42:51;99034.59;;;13.81;100.00
48652;BME280;34442;52.362;-1.302;2022-09-09T04:45:17;99044.59;;;13.81;100.00
48652;BME280;34442;52.362;-1.302;2022-09-09T04:47:44;99050.28;;;13.84;100.00
48652;BME280;34442;52.362;-1.302;2022-09-09T04:50:10;99045.72;;;13.90;100.00
48652;BME280;34442;52.362;-1.302;2022-09-09T04:52:36;99045.19;;;13.88;100.00
48652;BME280;34442;52.362;-1.302;2022-09-09T04:55:02;99050.06;;;13.91;100.00
48652;BME280;34442;52.362;-1.302;2022-09-09T04:57:28;99049.78;;;13.87;100.00
48652;BME280;34442;52.362;-1.302;2022-09-09T04:59:54;99045.41;;;13.86;100.00
48652;BME280;34442;52.362;-1.302;2022-09-09T05:02:20;99047.00;;;13.77;100.00
48652;BME280;34442;52.362;-1.302;2022-09-09T05:04:46;99054.84;;;13.79;100.00
48652;BME280;34442;52.362;-1.302;2022-09-09T05:07:12;99057.00;;;13.82;100.00
48652;BME280;34442;52.362;-1.302;2022-09-09T05:09:40;99058.69;;;13.88;100.00
48652;BME280;34442;52.362;-1.302;2022-09-09T05:12:06;99055.69;;;13.84;100.00
48652;BME280;34442;52.362;-1.302;2022-09-09T05:14:32;99057.88;;;13.87;100.00
48652;BME280;34442;52.362;-1.302;2022-09-09T05:16:58;99059.53;;;13.94;100.00
48652;BME280;34442;52.362;-1.302;2022-09-09T05:19:24;99066.00;;;13.93;100.00
48652;BME280;34442;52.362;-1.302;2022-09-09T05:21:50;99061.69;;;13.92;100.00
48652;BME280;34442;52.362;-1.302;2022-09-09T05:24:16;99067.03;;;13.86;100.00
48652;BME280;34442;52.362;-1.302;2022-09-09T05:26:43;99065.72;;;13.89;100.00
48652;BME280;34442;52.362;-1.302;2022-09-09T05:29:09;99064.13;;;13.93;100.00
48652;BME280;34442;52.362;-1.302;2022-09-09T05:31:36;99066.84;;;13.98;100.00
48652;BME280;34442;52.362;-1.302;2022-09-09T05:34:02;99062.78;;;13.96;100.00
48652;BME280;34442;52.362;-1.302;2022-09-09T05:36:28;99069.00;;;13.96;100.00
48652;BME280;34442;52.362;-1.302;2022-09-09T05:38:54;99072.72;;;13.90;100.00
48652;BME280;34442;52.362;-1.302;2022-09-09T05:41:20;99069.31;;;14.00;100.00
48652;BME280;34442;52.362;-1.302;2022-09-09T05:43:46;99063.91;;;14.05;100.00
48652;BME280;34442;52.362;-1.302;2022-09-09T05:46:18;99072.31;;;14.08;100.00
48652;BME280;34442;52.362;-1.302;2022-09-09T05:48:46;99080.16;;;14.15;100.00
48652;BME280;34442;52.362;-1.302;2022-09-09T05:51:15;99074.81;;;14.20;100.00
48652;BME280;34442;52.362;-1.302;2022-09-09T05:53:41;99078.06;;;14.22;100.00
48652;BME280;34442;52.362;-1.302;2022-09-09T05:56:13;99075.91;;;14.24;100.00
48652;BME280;34442;52.362;-1.302;2022-09-09T05:58:43;99087.28;;;14.26;100.00
48652;BME280;34442;52.362;-1.302;2022-09-09T06:01:11;99085.13;;;14.28;100.00
48652;BME280;34442;52.362;-1.302;2022-09-09T06:03:40;99084.59;;;14.31;100.00
48652;BME280;34442;52.362;-1.302;2022-09-09T06:06:09;99087.03;;;14.33;100.00
48652;BME280;34442;52.362;-1.302;2022-09-09T06:08:37;99082.16;;;14.35;100.00
48652;BME280;34442;52.362;-1.302;2022-09-09T06:11:09;99094.63;;;14.36;100.00
48652;BME280;34442;52.362;-1.302;2022-09-09T06:13:36;99097.59;;;14.34;100.00
48652;BME280;34442;52.362;-1.302;2022-09-09T06:16:08;99100.59;;;14.38;100.00
48652;BME280;34442;52.362;-1.302;2022-09-09T06:18:35;99088.16;;;14.37;100.00
48652;BME280;34442;52.362;-1.302;2022-09-09T06:21:03;99098.41;;;14.40;100.00
48652;BME280;34442;52.362;-1.302;2022-09-09T06:23:33;99101.41;;;14.44;100.00
48652;BME280;34442;52.362;-1.302;2022-09-09T06:26:10;99106.28;;;14.47;100.00
48652;BME280;34442;52.362;-1.302;2022-09-09T06:28:36;99104.69;;;14.46;100.00
48652;BME280;34442;52.362;-1.302;2022-09-09T06:31:07;99107.44;;;14.51;100.00
48652;BME280;34442;52.362;-1.302;2022-09-09T06:33:35;99110.97;;;14.56;100.00
48652;BME280;34442;52.362;-1.302;2022-09-09T06:36:03;99107.72;;;14.59;100.00
48652;BME280;34442;52.362;-1.302;2022-09-09T06:38:31;99112.34;;;14.59;100.00
48652;BME280;34442;52.362;-1.302;2022-09-09T06:40:59;99112.34;;;14.64;100.00
48652;BME280;34442;52.362;-1.302;2022-09-09T06:43:25;99118.31;;;14.66;100.00
48652;BME280;34442;52.362;-1.302;2022-09-09T06:45:56;99119.94;;;14.67;100.00
48652;BME280;34442;52.362;-1.302;2022-09-09T06:48:23;99132.94;;;14.65;100.00
48652;BME280;34442;52.362;-1.302;2022-09-09T06:50:49;99120.22;;;14.66;100.00
48652;BME280;34442;52.362;-1.302;2022-09-09T06:53:16;99123.16;;;14.64;100.00
48652;BME280;34442;52.362;-1.302;2022-09-09T06:55:45;99135.06;;;14.63;100.00
48652;BME280;34442;52.362;-1.302;2022-09-09T06:58:11;99126.16;;;14.68;100.00
48652;BME280;34442;52.362;-1.302;2022-09-09T07:00:37;99136.16;;;14.67;100.00
48652;BME280;34442;52.362;-1.302;2022-09-09T07:03:04;99137.78;;;14.68;100.00
48652;BME280;34442;52.362;-1.302;2022-09-09T07:05:32;99133.53;;;14.77;100.00
48652;BME280;34442;52.362;-1.302;2022-09-09T07:07:58;99134.13;;;14.95;100.00
48652;BME280;34442;52.362;-1.302;2022-09-09T07:10:24;99132.78;;;15.07;100.00
48652;BME280;34442;52.362;-1.302;2022-09-09T07:12:53;99137.97;;;15.19;100.00
48652;BME280;34442;52.362;-1.302;2022-09-09T07:15:19;99135.28;;;15.24;100.00
48652;BME280;34442;52.362;-1.302;2022-09-09T07:17:45;99141.50;;;15.25;100.00
48652;BME280;34442;52.362;-1.302;2022-09-09T07:20:13;99138.50;;;15.26;100.00
48652;BME280;34442;52.362;-1.302;2022-09-09T07:22:40;99138.25;;;15.33;100.00
48652;BME280;34442;52.362;-1.302;2022-09-09T07:25:08;99145.84;;;15.31;100.00
48652;BME280;34442;52.362;-1.302;2022-09-09T07:27:34;99149.34;;;15.26;100.00
48652;BME280;34442;52.362;-1.302;2022-09-09T07:30:00;99146.09;;;15.24;100.00
48652;BME280;34442;52.362;-1.302;2022-09-09T07:32:28;99149.63;;;15.20;100.00
48652;BME280;34442;52.362;-1.302;2022-09-09T07:34:56;99152.03;;;15.26;100.00
48652;BME280;34442;52.362;-1.302;2022-09-09T07:37:23;99159.41;;;15.36;100.00
48652;BME280;34442;52.362;-1.302;2022-09-09T07:39:50;99149.66;;;15.50;100.00
48652;BME280;34442;52.362;-1.302;2022-09-09T07:42:17;99154.81;;;15.62;100.00
48652;BME280;34442;52.362;-1.302;2022-09-09T07:44:43;99154.84;;;15.67;100.00
48652;BME280;34442;52.362;-1.302;2022-09-09T07:47:09;99160.22;;;15.62;100.00
48652;BME280;34442;52.362;-1.302;2022-09-09T07:49:35;99164.56;;;15.63;100.00
48652;BME280;34442;52.362;-1.302;2022-09-09T07:52:01;99164.34;;;15.65;100.00
48652;BME280;34442;52.362;-1.302;2022-09-09T07:54:27;99164.91;;;15.77;100.00
48652;BME280;34442;52.362;-1.302;2022-09-09T07:56:53;99164.59;;;15.83;100.00
48652;BME280;34442;52.362;-1.302;2022-09-09T07:59:19;99169.22;;;15.88;100.00
48652;BME280;34442;52.362;-1.302;2022-09-09T08:01:48;99171.94;;;15.98;100.00
48652;BME280;34442;52.362;-1.302;2022-09-09T08:04:16;99177.63;;;16.02;100.00
48652;BME280;34442;52.362;-1.302;2022-09-09T08:06:48;99164.31;;;16.00;100.00
48652;BME280;34442;52.362;-1.302;2022-09-09T08:09:15;99172.47;;;15.95;100.00
48652;BME280;34442;52.362;-1.302;2022-09-09T08:11:42;99176.56;;;15.93;100.00
48652;BME280;34442;52.362;-1.302;2022-09-09T08:14:09;99177.63;;;15.86;100.00
48652;BME280;34442;52.362;-1.302;2022-09-09T08:16:38;99186.28;;;16.04;100.00
48652;BME280;34442;52.362;-1.302;2022-09-09T08:19:05;99178.16;;;16.19;100.00
48652;BME280;34442;52.362;-1.302;2022-09-09T08:21:33;99183.81;;;16.28;100.00
48652;BME280;34442;52.362;-1.302;2022-09-09T08:24:01;99196.06;;;16.25;100.00
48652;BME280;34442;52.362;-1.302;2022-09-09T08:26:29;99187.66;;;16.22;100.00
48652;BME280;34442;52.362;-1.302;2022-09-09T08:28:57;99196.34;;;16.13;100.00
48652;BME280;34442;52.362;-1.302;2022-09-09T08:31:29;99193.88;;;16.07;100.00
48652;BME280;34442;52.362;-1.302;2022-09-09T08:33:56;99198.25;;;15.93;100.00
48652;BME280;34442;52.362;-1.302;2022-09-09T08:36:24;99199.31;;;16.02;100.00
48652;BME280;34442;52.362;-1.302;2022-09-09T08:38:53;99204.44;;;16.19;100.00
48652;BME280;34442;52.362;-1.302;2022-09-09T08:44:35;99206.59;;;16.32;100.00
48652;BME280;34442;52.362;-1.302;2022-09-09T08:50:27;99203.59;;;16.44;100.00
48652;BME280;34442;52.362;-1.302;2022-09-09T08:53:02;99205.72;;;16.77;100.00
48652;BME280;34442;52.362;-1.302;2022-09-09T09:00:43;99213.59;;;16.63;100.00
48652;BME280;34442;52.362;-1.302;2022-09-09T09:03:22;99224.16;;;16.70;100.00
48652;BME280;34442;52.362;-1.302;2022-09-09T09:08:31;99224.03;;;17.21;100.00
48652;BME280;34442;52.362;-1.302;2022-09-09T09:11:03;99216.28;;;17.49;100.00
48652;BME280;34442;52.362;-1.302;2022-09-09T09:16:23;99232.03;;;17.47;100.00
48652;BME280;34442;52.362;-1.302;2022-09-09T09:18:53;99232.59;;;17.44;100.00
48652;BME280;34442;52.362;-1.302;2022-09-09T09:21:43;99234.81;;;17.36;100.00
48652;BME280;34442;52.362;-1.302;2022-09-09T09:24:22;99241.91;;;17.32;100.00
48652;BME280;34442;52.362;-1.302;2022-09-09T09:26:51;99247.59;;;17.31;100.00
48652;BME280;34442;52.362;-1.302;2022-09-09T09:29:19;99254.44;;;17.28;100.00
48652;BME280;34442;52.362;-1.302;2022-09-09T09:31:55;99258.13;;;17.53;100.00
48652;BME280;34442;52.362;-1.302;2022-09-09T09:34:23;99257.06;;;17.44;100.00
48652;BME280;34442;52.362;-1.302;2022-09-09T09:36:55;99260.59;;;17.39;100.00
48652;BME280;34442;52.362;-1.302;2022-09-09T09:39:27;99261.69;;;17.43;100.00
48652;BME280;34442;52.362;-1.302;2022-09-09T09:41:54;99263.28;;;17.49;100.00
48652;BME280;34442;52.362;-1.302;2022-09-09T09:46:52;99269.44;;;17.70;100.00
48652;BME280;34442;52.362;-1.302;2022-09-09T09:49:19;99272.13;;;17.75;100.00
48652;BME280;34442;52.362;-1.302;2022-09-09T09:51:45;99277.06;;;17.63;100.00
48652;BME280;34442;52.362;-1.302;2022-09-09T09:56:39;99278.28;;;17.42;100.00
48652;BME280;34442;52.362;-1.302;2022-09-09T09:59:22;99282.91;;;17.31;100.00
48652;BME280;34442;52.362;-1.302;2022-09-09T10:01:48;99293.53;;;17.27;100.00
48652;BME280;34442;52.362;-1.302;2022-09-09T10:04:17;99282.94;;;17.26;100.00
48652;BME280;34442;52.362;-1.302;2022-09-09T10:06:46;99282.41;;;17.24;100.00
48652;BME280;34442;52.362;-1.302;2022-09-09T10:09:26;99287.50;;;17.35;100.00
48652;BME280;34442;52.362;-1.302;2022-09-09T10:14:21;99290.88;;;17.72;100.00
48652;BME280;34442;52.362;-1.302;2022-09-09T10:17:09;99287.19;;;18.02;100.00
48652;BME280;34442;52.362;-1.302;2022-09-09T10:19:44;99297.69;;;18.19;100.00
48652;BME280;34442;52.362;-1.302;2022-09-09T10:22:27;99297.28;;;18.35;100.00
48652;BME280;34442;52.362;-1.302;2022-09-09T10:33:09;99294.16;;;18.47;100.00
48652;BME280;34442;52.362;-1.302;2022-09-09T10:36:01;99298.84;;;18.42;100.00
48652;BME280;34442;52.362;-1.302;2022-09-09T10:38:40;99300.66;;;18.51;100.00
48652;BME280;34442;52.362;-1.302;2022-09-09T10:41:39;99293.13;;;18.77;100.00
48652;BME280;34442;52.362;-1.302;2022-09-09T10:55:20;99301.69;;;18.60;100.00
48652;BME280;34442;52.362;-1.302;2022-09-09T10:57:48;99309.13;;;18.16;100.00
48652;BME280;34442;52.362;-1.302;2022-09-09T11:00:19;99311.44;;;17.93;100.00
48652;BME280;34442;52.362;-1.302;2022-09-09T11:03:18;99313.69;;;17.86;100.00
48652;BME280;34442;52.362;-1.302;2022-09-09T11:05:49;99306.94;;;17.78;100.00
48652;BME280;34442;52.362;-1.302;2022-09-09T11:08:23;99307.22;;;17.67;100.00
48652;BME280;34442;52.362;-1.302;2022-09-09T11:11:16;99309.16;;;17.61;100.00
48652;BME280;34442;52.362;-1.302;2022-09-09T11:14:11;99306.28;;;17.92;100.00
48652;BME280;34442;52.362;-1.302;2022-09-09T11:16:50;99300.81;;;18.36;100.00
48652;BME280;34442;52.362;-1.302;2022-09-09T11:19:37;99309.19;;;18.45;100.00
48652;BME280;34442;52.362;-1.302;2022-09-09T11:22:25;99300.00;;;18.35;100.00
48652;BME280;34442;52.362;-1.302;2022-09-09T11:25:19;99302.75;;;18.65;100.00
48652;BME280;34442;52.362;-1.302;2022-09-09T11:30:22;99313.44;;;18.90;100.00
48652;BME280;34442;52.362;-1.302;2022-09-09T11:36:16;99309.03;;;18.94;100.00
48652;BME280;34442;52.362;-1.302;2022-09-09T11:38:52;99309.44;;;19.06;100.00
48652;BME280;34442;52.362;-1.302;2022-09-09T11:41:20;99317.97;;;19.24;100.00
48652;BME280;34442;52.362;-1.302;2022-09-09T11:43:49;99303.28;;;19.20;100.00
48652;BME280;34442;52.362;-1.302;2022-09-09T11:46:21;99307.47;;;19.36;100.00
48652;BME280;34442;52.362;-1.302;2022-09-09T11:49:01;99301.25;;;19.54;100.00
48652;BME280;34442;52.362;-1.302;2022-09-09T11:51:29;99309.81;;;19.67;100.00
48652;BME280;34442;52.362;-1.302;2022-09-09T11:54:21;99313.84;;;19.93;100.00
48652;BME280;34442;52.362;-1.302;2022-09-09T11:56:46;99317.97;;;19.91;100.00
48652;BME280;34442;52.362;-1.302;2022-09-09T11:59:33;99322.47;;;19.81;100.00
48652;BME280;34442;52.362;-1.302;2022-09-09T12:01:59;99315.28;;;19.67;100.00
48652;BME280;34442;52.362;-1.302;2022-09-09T12:04:33;99315.97;;;19.53;100.00
48652;BME280;34442;52.362;-1.302;2022-09-09T12:12:27;99312.44;;;19.77;100.00
48652;BME280;34442;52.362;-1.302;2022-09-09T12:17:53;99323.28;;;19.58;100.00
48652;BME280;34442;52.362;-1.302;2022-09-09T12:23:11;99320.00;;;18.84;100.00
48652;BME280;34442;52.362;-1.302;2022-09-09T12:25:47;99319.34;;;18.63;100.00
48652;BME280;34442;52.362;-1.302;2022-09-09T12:28:25;99318.84;;;18.61;100.00
48652;BME280;34442;52.362;-1.302;2022-09-09T12:31:06;99324.69;;;18.78;100.00
48652;BME280;34442;52.362;-1.302;2022-09-09T12:33:37;99316.44;;;18.89;100.00
48652;BME280;34442;52.362;-1.302;2022-09-09T12:36:09;99317.38;;;19.03;100.00
48652;BME280;34442;52.362;-1.302;2022-09-09T12:38:40;99324.06;;;19.16;100.00
48652;BME280;34442;52.362;-1.302;2022-09-09T12:41:27;99320.88;;;19.32;100.00
48652;BME280;34442;52.362;-1.302;2022-09-09T12:44:08;99326.66;;;19.50;100.00
48652;BME280;34442;52.362;-1.302;2022-09-09T12:46:40;99323.28;;;19.58;100.00
48652;BME280;34442;52.362;-1.302;2022-09-09T12:51:54;99332.84;;;19.98;100.00
48652;BME280;34442;52.362;-1.302;2022-09-09T12:54:21;99333.47;;;20.14;100.00
48652;BME280;34442;52.362;-1.302;2022-09-09T12:56:48;99332.06;;;20.17;100.00
48652;BME280;34442;52.362;-1.302;2022-09-09T12:59:25;99331.97;;;20.03;100.00
48652;BME280;34442;52.362;-1.302;2022-09-09T13:01:58;99323.56;;;19.99;100.00
48652;BME280;34442;52.362;-1.302;2022-09-09T13:04:25;99331.69;;;19.86;100.00
48652;BME280;34442;52.362;-1.302;2022-09-09T13:06:51;99337.44;;;19.84;100.00
48652;BME280;34442;52.362;-1.302;2022-09-09T13:09:18;99334.56;;;19.75;100.00
48652;BME280;34442;52.362;-1.302;2022-09-09T13:11:55;99336.63;;;19.83;100.00
48652;BME280;34442;52.362;-1.302;2022-09-09T13:14:28;99334.47;;;19.99;100.00
48652;BME280;34442;52.362;-1.302;2022-09-09T13:16:59;99339.84;;;19.86;100.00
48652;BME280;34442;52.362;-1.302;2022-09-09T13:19:32;99338.50;;;19.64;100.00
48652;BME280;34442;52.362;-1.302;2022-09-09T13:22:14;99341.91;;;19.27;100.00
48652;BME280;34442;52.362;-1.302;2022-09-09T13:24:45;99342.59;;;18.90;100.00
48652;BME280;34442;52.362;-1.302;2022-09-09T13:27:27;99346.31;;;18.65;100.00
48652;BME280;34442;52.362;-1.302;2022-09-09T13:29:54;99343.16;;;18.47;100.00
48652;BME280;34442;52.362;-1.302;2022-09-09T13:32:24;99346.22;;;18.41;100.00
48652;BME280;34442;52.362;-1.302;2022-09-09T13:34:56;99352.69;;;18.50;100.00
48652;BME280;34442;52.362;-1.302;2022-09-09T13:37:31;99348.84;;;18.51;100.00
48652;BME280;34442;52.362;-1.302;2022-09-09T13:39:58;99353.22;;;18.52;100.00
48652;BME280;34442;52.362;-1.302;2022-09-09T13:42:31;99348.28;;;18.54;100.00
48652;BME280;34442;52.362;-1.302;2022-09-09T13:44:59;99351.31;;;18.52;100.00
48652;BME280;34442;52.362;-1.302;2022-09-09T13:47:34;99345.44;;;18.69;100.00
48652;BME280;34442;52.362;-1.302;2022-09-09T13:50:20;99349.03;;;18.99;100.00
48652;BME280;34442;52.362;-1.302;2022-09-09T13:52:47;99348.06;;;19.14;100.00
48652;BME280;34442;52.362;-1.302;2022-09-09T13:55:14;99351.63;;;19.09;100.00
48652;BME280;34442;52.362;-1.302;2022-09-09T13:57:56;99349.94;;;19.13;100.00
48652;BME280;34442;52.362;-1.302;2022-09-09T14:00:24;99359.84;;;19.04;100.00
48652;BME280;34442;52.362;-1.302;2022-09-09T14:02:50;99351.56;;;18.90;100.00
48652;BME280;34442;52.362;-1.302;2022-09-09T14:05:18;99357.91;;;18.80;100.00
48652;BME280;34442;52.362;-1.302;2022-09-09T14:07:44;99364.44;;;18.79;100.00
48652;BME280;34442;52.362;-1.302;2022-09-09T14:10:11;99361.97;;;18.83;100.00
48652;BME280;34442;52.362;-1.302;2022-09-09T14:12:37;99381.88;;;18.78;100.00
48652;BME280;34442;52.362;-1.302;2022-09-09T14:15:05;99388.03;;;18.55;100.00
48652;BME280;34442;52.362;-1.302;2022-09-09T14:17:32;99405.88;;;17.67;100.00
48652;BME280;34442;52.362;-1.302;2022-09-09T14:19:59;99394.06;;;17.17;100.00
48652;BME280;34442;52.362;-1.302;2022-09-09T14:22:25;99404.97;;;16.92;100.00
48652;BME280;34442;52.362;-1.302;2022-09-09T14:24:51;99400.91;;;16.84;100.00
48652;BME280;34442;52.362;-1.302;2022-09-09T14:27:17;99412.00;;;16.82;100.00
48652;BME280;34442;52.362;-1.302;2022-09-09T14:29:44;99410.94;;;16.83;100.00
48652;BME280;34442;52.362;-1.302;2022-09-09T14:32:11;99418.53;;;16.86;100.00
48652;BME280;34442;52.362;-1.302;2022-09-09T14:34:37;99421.75;;;16.63;100.00
48652;BME280;34442;52.362;-1.302;2022-09-09T14:37:04;99421.19;;;16.61;100.00
48652;BME280;34442;52.362;-1.302;2022-09-09T14:39:30;99427.72;;;16.55;100.00
48652;BME280;34442;52.362;-1.302;2022-09-09T14:41:56;99430.97;;;16.52;100.00
48652;BME280;34442;52.362;-1.302;2022-09-09T14:44:22;99426.09;;;16.59;100.00
48652;BME280;34442;52.362;-1.302;2022-09-09T14:46:48;99427.47;;;16.67;100.00
48652;BME280;34442;52.362;-1.302;2022-09-09T14:49:16;99424.25;;;16.75;100.00